Time;durP1;ratioP1;P1;durP2;ratioP2;P2;SDS_P1;SDS_P2;PMS_P1;PMS_P2;Temp;Humidity;BMP_temperature;BMP_pressure;BME280_temperature;BME280_humidity;BME280_pressure;Samples;Min_cycle;Max_cycle;Signal;HPM_P1;HPM_P2
2023/06/26 00:01:49;;;;;;;;;;;;;;;14.62;67.00;101383.21;107378;1256;71388;-85
2023/06/26 00:04:22;;;;;;;;;;;;;;;14.58;67.27;101385.80;107173;1257;61185;-85
2023/06/26 00:06:50;;;;;;;;;;;;;;;14.55;67.43;101380.78;107468;1254;59477;-85
2023/06/26 00:09:25;;;;;;;;;;;;;;;14.53;67.64;101384.43;107512;1258;124072;-85
2023/06/26 00:11:53;;;;;;;;;;;;;;;14.50;67.87;101379.60;107577;1254;66925;-85
2023/06/26 00:14:20;;;;;;;;;;;;;;;14.47;67.93;101377.27;107481;1259;124093;-84
2023/06/26 00:16:49;;;;;;;;;;;;;;;14.46;68.04;101376.18;107583;1255;61813;-84
2023/06/26 00:19:17;;;;;;;;;;;;;;;14.43;68.11;101376.14;107652;1257;61305;-84
2023/06/26 00:21:47;;;;;;;;;;;;;;;14.40;68.20;101373.95;107566;1256;124612;-84
2023/06/26 00:24:22;;;;;;;;;;;;;;;14.39;68.39;101374.98;107478;1255;64783;-84
2023/06/26 00:26:50;;;;;;;;;;;;;;;14.37;68.56;101374.06;107302;1258;125009;-85
2023/06/26 00:29:29;;;;;;;;;;;;;;;14.35;68.65;101371.20;107726;1254;59806;-85
2023/06/26 00:31:57;;;;;;;;;;;;;;;14.34;68.73;101370.66;107590;1257;125085;-85
2023/06/26 00:34:24;;;;;;;;;;;;;;;14.33;68.82;101372.41;107762;1260;73948;-85
2023/06/26 00:36:58;;;;;;;;;;;;;;;14.33;68.97;101375.23;107656;1254;67092;-84
2023/06/26 00:39:25;;;;;;;;;;;;;;;14.34;69.15;101375.41;107533;1258;124838;-82
2023/06/26 00:41:56;;;;;;;;;;;;;;;14.34;69.22;101372.59;107723;1254;60974;-85
2023/06/26 00:44:24;;;;;;;;;;;;;;;14.34;69.35;101374.71;107627;1254;124806;-85
2023/06/26 00:47:10;;;;;;;;;;;;;;;14.35;69.38;101372.26;107616;1255;73444;-85
2023/06/26 00:49:37;;;;;;;;;;;;;;;14.35;69.49;101373.85;107407;1257;125529;-85
2023/06/26 00:52:16;;;;;;;;;;;;;;;14.36;69.58;101372.46;107305;1254;73234;-85
2023/06/26 00:54:51;;;;;;;;;;;;;;;14.36;69.59;101369.46;107499;1256;61235;-85
2023/06/26 00:57:31;;;;;;;;;;;;;;;14.36;69.52;101369.45;107244;1256;125044;-85
2023/06/26 01:00:05;;;;;;;;;;;;;;;14.33;69.60;101367.11;107335;1257;73339;-85
2023/06/26 01:02:40;;;;;;;;;;;;;;;14.33;69.77;101366.91;107442;1257;125464;-85
2023/06/26 01:05:20;;;;;;;;;;;;;;;14.32;69.68;101370.62;107590;1261;72660;-86
2023/06/26 01:08:00;;;;;;;;;;;;;;;14.30;69.73;101364.23;107552;1254;124960;-86
2023/06/26 01:10:36;;;;;;;;;;;;;;;14.28;69.81;101365.59;107639;1257;60481;-86
2023/06/26 01:13:03;;;;;;;;;;;;;;;14.27;69.93;101360.80;107617;1254;73148;-87
2023/06/26 01:15:43;;;;;;;;;;;;;;;14.24;70.07;101361.81;107600;1256;125081;-85
2023/06/26 01:18:22;;;;;;;;;;;;;;;14.20;70.03;101359.61;107353;1257;71492;-85
2023/06/26 01:20:51;;;;;;;;;;;;;;;14.19;70.17;101359.95;107295;1254;124483;-85
2023/06/26 01:23:18;;;;;;;;;;;;;;;14.17;70.16;101357.27;107347;1258;60156;-85
2023/06/26 01:28:50;;;;;;;;;;;;;;;14.14;70.26;101350.85;107629;1257;65903;-86
2023/06/26 01:31:29;;;;;;;;;;;;;;;14.10;70.40;101349.35;107389;1256;71534;-84
2023/06/26 01:34:02;;;;;;;;;;;;;;;14.05;70.50;101345.19;107501;1258;60574;-84
2023/06/26 01:36:29;;;;;;;;;;;;;;;14.02;70.71;101344.60;107513;1256;59540;-84
2023/06/26 01:38:57;;;;;;;;;;;;;;;13.99;70.91;101344.17;107270;1256;124384;-83
2023/06/26 01:41:24;;;;;;;;;;;;;;;13.96;71.14;101345.89;107707;1257;67115;-83
2023/06/26 01:43:51;;;;;;;;;;;;;;;13.93;71.15;101342.48;107289;1257;124737;-84
2023/06/26 01:46:37;;;;;;;;;;;;;;;13.89;71.17;101337.11;107688;1257;59976;-83
2023/06/26 01:49:23;;;;;;;;;;;;;;;13.86;71.26;101336.87;107649;1257;60064;-84
2023/06/26 01:52:17;;;;;;;;;;;;;;;13.83;71.35;101338.39;107716;1259;124082;-84
2023/06/26 01:54:49;;;;;;;;;;;;;;;13.79;71.51;101339.70;107595;1257;67701;-83
2023/06/26 01:57:22;;;;;;;;;;;;;;;13.77;71.53;101341.96;107467;1260;125115;-83
2023/06/26 01:59:53;;;;;;;;;;;;;;;13.75;71.68;101342.64;107682;1257;59756;-83
2023/06/26 02:02:20;;;;;;;;;;;;;;;13.74;71.75;101344.20;107271;1255;125283;-83
2023/06/26 02:04:48;;;;;;;;;;;;;;;13.75;71.81;101339.63;107433;1257;74721;-82
2023/06/26 02:07:17;;;;;;;;;;;;;;;13.76;71.86;101340.37;107680;1257;66946;-82
2023/06/26 02:09:44;;;;;;;;;;;;;;;13.77;71.93;101334.20;107469;1257;124865;-82
2023/06/26 02:12:11;;;;;;;;;;;;;;;13.80;71.93;101331.45;107797;1257;60171;-83
2023/06/26 02:14:39;;;;;;;;;;;;;;;13.83;71.87;101331.50;108074;1255;125820;-83
2023/06/26 02:17:12;;;;;;;;;;;;;;;13.85;72.02;101328.56;107839;1254;74670;-82
2023/06/26 02:19:47;;;;;;;;;;;;;;;13.89;72.00;101327.39;107422;1257;125103;-82
2023/06/26 02:22:15;;;;;;;;;;;;;;;13.93;72.10;101331.71;107786;1257;72783;-82
2023/06/26 02:24:45;;;;;;;;;;;;;;;13.96;72.08;101331.08;107578;1257;61243;-82
2023/06/26 02:27:12;;;;;;;;;;;;;;;14.00;72.07;101329.57;107491;1257;124946;-82
2023/06/26 02:29:39;;;;;;;;;;;;;;;14.05;72.12;101328.23;107568;1255;74666;-82
2023/06/26 02:32:06;;;;;;;;;;;;;;;14.09;72.12;101328.31;107505;1256;125159;-82
2023/06/26 02:34:33;;;;;;;;;;;;;;;14.13;72.10;101325.94;107443;1260;71358;-82
2023/06/26 02:37:01;;;;;;;;;;;;;;;14.17;72.16;101326.19;107511;1258;60910;-82
2023/06/26 02:39:28;;;;;;;;;;;;;;;14.21;72.04;101323.09;107724;1256;125372;-82
2023/06/26 02:41:55;;;;;;;;;;;;;;;14.26;72.08;101323.01;107767;1257;75175;-82
2023/06/26 02:44:22;;;;;;;;;;;;;;;14.32;72.14;101317.98;107488;1257;124812;-82
2023/06/26 02:46:49;;;;;;;;;;;;;;;14.37;72.10;101315.44;107407;1258;71751;-82
2023/06/26 02:49:19;;;;;;;;;;;;;;;14.43;72.02;101315.39;107334;1256;61024;-82
2023/06/26 02:51:47;;;;;;;;;;;;;;;14.48;72.12;101313.52;107110;1257;124547;-83
2023/06/26 02:54:14;;;;;;;;;;;;;;;14.56;72.07;101313.50;107219;1256;74933;-83
2023/06/26 02:56:43;;;;;;;;;;;;;;;14.64;72.05;101313.67;107250;1256;125250;-84
2023/06/26 02:59:17;;;;;;;;;;;;;;;14.73;72.07;101315.23;107213;1256;72946;-83
2023/06/26 03:01:44;;;;;;;;;;;;;;;14.82;72.05;101316.45;107216;1255;126086;-84
2023/06/26 03:04:15;;;;;;;;;;;;;;;14.89;71.88;101316.03;107624;1257;60557;-84
2023/06/26 03:06:44;;;;;;;;;;;;;;;14.98;71.87;101313.34;107479;1257;74699;-83
2023/06/26 03:09:11;;;;;;;;;;;;;;;15.06;71.86;101313.99;107400;1256;124803;-83
2023/06/26 03:11:38;;;;;;;;;;;;;;;15.13;71.75;101316.41;107284;1255;72395;-83
2023/06/26 03:14:11;;;;;;;;;;;;;;;15.23;71.70;101318.31;107607;1256;124938;-82
2023/06/26 03:16:38;;;;;;;;;;;;;;;15.33;71.55;101316.01;107858;1257;61724;-84
2023/06/26 03:19:05;;;;;;;;;;;;;;;15.41;71.36;101311.52;107096;1263;74637;-83
2023/06/26 03:21:32;;;;;;;;;;;;;;;15.49;71.30;101312.70;106975;1257;124156;-83
2023/06/26 03:24:00;;;;;;;;;;;;;;;15.57;71.25;101308.20;107461;1260;72537;-83
2023/06/26 03:26:28;;;;;;;;;;;;;;;15.69;71.23;101307.83;107691;1256;124692;-84
2023/06/26 03:28:57;;;;;;;;;;;;;;;15.85;71.22;101309.47;107627;1254;59891;-83
2023/06/26 03:31:44;;;;;;;;;;;;;;;16.20;71.73;101306.69;107462;1254;73370;-84
2023/06/26 03:34:17;;;;;;;;;;;;;;;16.78;71.40;101306.55;107482;1254;64887;-84
2023/06/26 03:36:44;;;;;;;;;;;;;;;17.14;70.29;101300.81;107306;1254;72490;-83
2023/06/26 03:39:11;;;;;;;;;;;;;;;17.20;69.55;101303.52;107567;1254;124822;-83
2023/06/26 03:41:38;;;;;;;;;;;;;;;17.25;69.11;101304.96;107562;1254;61118;-83
2023/06/26 03:44:05;;;;;;;;;;;;;;;17.34;68.97;101306.44;107118;1256;124879;-85
2023/06/26 03:46:33;;;;;;;;;;;;;;;17.50;68.75;101306.34;107226;1260;66841;-83
2023/06/26 03:49:00;;;;;;;;;;;;;;;17.73;68.59;101300.26;107510;1254;71426;-83
2023/06/26 03:51:30;;;;;;;;;;;;;;;18.72;69.98;101298.52;107264;1259;124635;-84
2023/06/26 03:53:58;;;;;;;;;;;;;;;20.96;70.18;101295.59;107692;1254;61231;-83
2023/06/26 03:56:25;;;;;;;;;;;;;;;23.29;67.97;101295.63;107653;1256;125150;-84
2023/06/26 03:58:52;;;;;;;;;;;;;;;25.33;64.66;101291.55;107385;1255;66894;-84
2023/06/26 04:01:21;;;;;;;;;;;;;;;26.94;61.50;101292.90;107488;1253;72729;-84
2023/06/26 04:03:48;;;;;;;;;;;;;;;28.42;58.80;101294.83;107567;1255;124689;-83
2023/06/26 04:06:15;;;;;;;;;;;;;;;29.65;56.03;101291.14;107575;1257;62048;-82
2023/06/26 04:08:42;;;;;;;;;;;;;;;30.71;53.78;101290.43;107790;1256;124732;-82
2023/06/26 04:11:09;;;;;;;;;;;;;;;31.63;51.44;101292.36;107704;1254;61293;-82
2023/06/26 04:13:36;;;;;;;;;;;;;;;32.41;49.49;101287.27;107745;1254;124306;-82
2023/06/26 04:16:03;;;;;;;;;;;;;;;33.31;47.98;101285.37;107944;1257;60469;-80
2023/06/26 04:18:31;;;;;;;;;;;;;;;34.29;46.47;101280.91;107964;1254;61318;-78
2023/06/26 04:21:06;;;;;;;;;;;;;;;35.24;44.57;101281.95;107976;1254;124188;-79
2023/06/26 04:23:34;;;;;;;;;;;;;;;35.96;42.69;101281.55;107389;1257;256650;-79
2023/06/26 04:26:02;;;;;;;;;;;;;;;36.62;41.23;101278.11;107546;1257;124805;-80
2023/06/26 04:28:29;;;;;;;;;;;;;;;37.08;39.53;101278.02;107629;1254;59322;-81
2023/06/26 04:30:57;;;;;;;;;;;;;;;37.28;38.28;101277.26;107320;1256;61533;-80
2023/06/26 04:33:25;;;;;;;;;;;;;;;37.54;37.34;101273.33;107323;1254;124077;-80
2023/06/26 04:35:52;;;;;;;;;;;;;;;38.19;36.55;101272.91;107536;1257;59905;-80
2023/06/26 04:38:21;;;;;;;;;;;;;;;38.88;35.61;101271.21;107488;1254;124309;-82
2023/06/26 04:40:48;;;;;;;;;;;;;;;39.49;34.61;101271.71;107694;1254;59562;-84
2023/06/26 04:43:16;;;;;;;;;;;;;;;40.12;33.77;101271.73;107525;1254;60575;-79
2023/06/26 04:45:43;;;;;;;;;;;;;;;40.72;32.63;101270.27;107845;1254;124847;-82
2023/06/26 04:48:10;;;;;;;;;;;;;;;41.31;31.91;101266.65;107824;1257;61237;-81
2023/06/26 04:50:37;;;;;;;;;;;;;;;42.02;31.09;101263.84;107506;1254;124552;-80
2023/06/26 04:53:04;;;;;;;;;;;;;;;42.66;30.22;101265.48;107535;1257;60466;-76
2023/06/26 04:55:31;;;;;;;;;;;;;;;43.22;29.44;101267.77;108172;1254;59332;-76
2023/06/26 04:57:58;;;;;;;;;;;;;;;43.60;28.69;101266.92;107876;1260;124742;-76
2023/06/26 05:00:25;;;;;;;;;;;;;;;44.01;28.09;101265.96;107703;1254;62135;-78
2023/06/26 05:03:00;;;;;;;;;;;;;;;44.44;27.39;101264.41;107646;1256;124173;-76
2023/06/26 05:05:29;;;;;;;;;;;;;;;44.76;26.51;101265.80;108024;1254;61285;-76
2023/06/26 05:07:56;;;;;;;;;;;;;;;45.01;25.67;101261.61;107734;1257;124511;-78
2023/06/26 05:10:23;;;;;;;;;;;;;;;45.32;25.05;101259.92;107822;1254;65026;-77
2023/06/26 05:12:50;;;;;;;;;;;;;;;45.53;24.32;101256.57;107803;1255;59467;-78
2023/06/26 05:15:17;;;;;;;;;;;;;;;45.66;23.95;101255.77;107788;1254;124980;-81
2023/06/26 05:17:44;;;;;;;;;;;;;;;45.73;23.69;101250.64;107561;1255;59599;-82
2023/06/26 05:20:11;;;;;;;;;;;;;;;45.90;23.05;101250.21;107401;1256;124419;-83
2023/06/26 05:22:39;;;;;;;;;;;;;;;46.12;22.58;101249.73;107507;1254;64906;-83
2023/06/26 05:25:07;;;;;;;;;;;;;;;46.63;22.31;101248.14;107745;1254;61358;-82
2023/06/26 05:27:34;;;;;;;;;;;;;;;46.93;21.82;101250.09;107421;1257;124373;-82
2023/06/26 05:30:04;;;;;;;;;;;;;;;46.94;21.27;101249.04;107658;1254;60053;-82
2023/06/26 05:32:31;;;;;;;;;;;;;;;46.89;20.75;101247.07;107636;1255;124200;-82
2023/06/26 05:34:58;;;;;;;;;;;;;;;46.94;20.36;101249.90;107380;1254;66301;-84
2023/06/26 05:37:25;;;;;;;;;;;;;;;47.29;20.14;101248.65;107534;1256;61214;-83
2023/06/26 05:40:01;;;;;;;;;;;;;;;47.55;19.53;101247.66;107389;1257;124120;-89
2023/06/26 05:42:30;;;;;;;;;;;;;;;47.45;19.41;101245.50;107934;1254;61182;-83
2023/06/26 05:44:57;;;;;;;;;;;;;;;46.13;18.72;101243.27;107450;1256;124241;-81
2023/06/26 05:47:26;;;;;;;;;;;;;;;43.55;18.83;101241.41;107624;1257;64560;-81
2023/06/26 05:49:53;;;;;;;;;;;;;;;40.83;19.62;101237.76;107531;1254;124375;-80
2023/06/26 05:52:20;;;;;;;;;;;;;;;38.61;20.65;101236.01;107512;1255;62393;-80
2023/06/26 05:54:47;;;;;;;;;;;;;;;36.82;21.55;101233.56;107564;1254;60440;-80
2023/06/26 05:57:14;;;;;;;;;;;;;;;35.38;22.47;101232.59;107826;1254;124502;-80
2023/06/26 05:59:44;;;;;;;;;;;;;;;34.16;23.31;101230.02;108045;1255;66116;-79
2023/06/26 06:02:15;;;;;;;;;;;;;;;32.90;24.15;101228.39;107712;1254;124525;-81
2023/06/26 06:04:42;;;;;;;;;;;;;;;31.75;25.35;101226.89;107916;1253;62795;-81
2023/06/26 06:07:09;;;;;;;;;;;;;;;30.86;26.13;101226.98;107710;1255;59974;-81
2023/06/26 06:09:37;;;;;;;;;;;;;;;30.14;26.91;101226.98;107428;1254;125114;-80
2023/06/26 06:12:05;;;;;;;;;;;;;;;29.50;27.46;101226.77;107657;1257;75001;-80
2023/06/26 06:14:33;;;;;;;;;;;;;;;28.99;27.66;101225.98;107586;1256;124395;-80
2023/06/26 06:17:00;;;;;;;;;;;;;;;28.54;28.06;101228.08;107784;1257;72153;-82
2023/06/26 06:19:27;;;;;;;;;;;;;;;28.11;28.33;101233.80;107705;1253;60432;-82
2023/06/26 06:21:54;;;;;;;;;;;;;;;27.66;28.55;101234.65;107684;1254;124719;-80
2023/06/26 06:24:21;;;;;;;;;;;;;;;27.18;29.10;101233.34;107902;1253;74348;-81
2023/06/26 06:26:48;;;;;;;;;;;;;;;26.84;29.57;101230.43;107617;1253;124865;-81
2023/06/26 06:29:18;;;;;;;;;;;;;;;26.66;30.22;101232.34;107319;1256;71055;-81
2023/06/26 06:31:46;;;;;;;;;;;;;;;26.51;30.49;101232.60;107599;1253;125106;-80
2023/06/26 06:34:13;;;;;;;;;;;;;;;26.38;30.98;101233.94;107869;1256;61036;-81
2023/06/26 06:36:41;;;;;;;;;;;;;;;26.23;31.11;101233.90;108121;1257;74717;-81
2023/06/26 06:39:08;;;;;;;;;;;;;;;26.05;31.58;101226.21;107875;1260;124442;-81
2023/06/26 06:41:35;;;;;;;;;;;;;;;25.83;31.67;101224.34;107931;1256;71165;-81
2023/06/26 06:44:02;;;;;;;;;;;;;;;25.62;31.85;101223.71;107899;1257;124902;-81
2023/06/26 06:46:29;;;;;;;;;;;;;;;25.51;32.32;101224.59;108054;1254;60608;-80
2023/06/26 06:48:56;;;;;;;;;;;;;;;25.46;32.54;101223.49;107703;1254;73585;-80
2023/06/26 06:51:23;;;;;;;;;;;;;;;25.37;32.65;101220.85;107556;1256;124873;-80
2023/06/26 06:53:50;;;;;;;;;;;;;;;25.30;33.00;101225.02;107388;1256;72413;-82
2023/06/26 06:56:17;;;;;;;;;;;;;;;25.08;33.14;101223.98;107437;1259;124318;-80
2023/06/26 06:58:46;;;;;;;;;;;;;;;24.93;33.52;101221.52;107459;1256;59801;-80
2023/06/26 07:01:13;;;;;;;;;;;;;;;24.87;33.95;101224.75;107674;1255;75305;-80
2023/06/26 07:03:40;;;;;;;;;;;;;;;24.84;34.19;101226.63;107628;1256;124199;-78
2023/06/26 07:06:07;;;;;;;;;;;;;;;24.76;34.26;101223.77;107796;1254;72658;-81
2023/06/26 07:08:35;;;;;;;;;;;;;;;24.70;34.40;101224.29;107412;1254;124284;-81
2023/06/26 07:11:02;;;;;;;;;;;;;;;24.68;34.85;101222.59;107489;1254;62300;-80
2023/06/26 07:13:29;;;;;;;;;;;;;;;24.62;35.21;101219.09;107627;1257;73103;-80
2023/06/26 07:15:56;;;;;;;;;;;;;;;24.61;35.28;101219.86;107794;1259;124518;-80
2023/06/26 07:18:23;;;;;;;;;;;;;;;24.51;35.29;101221.52;107815;1257;72740;-81
2023/06/26 07:20:53;;;;;;;;;;;;;;;24.39;35.70;101216.08;107882;1257;124624;-81
2023/06/26 07:23:20;;;;;;;;;;;;;;;24.33;35.81;101217.66;107995;1254;60463;-80
2023/06/26 07:25:47;;;;;;;;;;;;;;;24.33;36.14;101218.39;107792;1259;124419;-80
2023/06/26 07:28:14;;;;;;;;;;;;;;;24.34;36.54;101220.85;107795;1257;65840;-82
2023/06/26 07:30:41;;;;;;;;;;;;;;;24.27;36.82;101222.30;107727;1260;73310;-81
2023/06/26 07:33:08;;;;;;;;;;;;;;;24.12;36.90;101221.93;107672;1258;124699;-80
2023/06/26 07:35:35;;;;;;;;;;;;;;;24.07;37.30;101219.37;107759;1254;61206;-81
2023/06/26 07:38:04;;;;;;;;;;;;;;;24.12;37.76;101216.18;107762;1254;124347;-81
2023/06/26 07:40:30;;;;;;;;;;;;;;;24.14;38.04;101215.26;107869;1256;66773;-84
2023/06/26 07:42:58;;;;;;;;;;;;;;;24.13;38.60;101216.70;107773;1257;72719;-81
2023/06/26 07:45:25;;;;;;;;;;;;;;;24.11;38.73;101208.69;107714;1256;124700;-82
2023/06/26 07:47:52;;;;;;;;;;;;;;;24.15;38.59;101211.63;107678;1254;60334;-82
2023/06/26 07:50:22;;;;;;;;;;;;;;;24.21;38.67;101205.75;107464;1254;124718;-81
2023/06/26 07:52:49;;;;;;;;;;;;;;;24.28;38.68;101203.27;107773;1254;67467;-81
2023/06/26 07:55:16;;;;;;;;;;;;;;;24.32;38.82;101207.65;107892;1254;73189;-81
2023/06/26 07:57:45;;;;;;;;;;;;;;;24.35;39.11;101205.25;107929;1259;124620;-81
2023/06/26 08:00:12;;;;;;;;;;;;;;;24.37;39.66;101204.11;107923;1255;61193;-81
2023/06/26 08:02:39;;;;;;;;;;;;;;;24.37;40.57;101202.30;107443;1257;124943;-80
2023/06/26 08:05:07;;;;;;;;;;;;;;;24.40;41.18;101197.77;108794;1257;65789;-81
2023/06/26 08:07:34;;;;;;;;;;;;;;;24.47;41.65;101200.83;108949;1254;72856;-82
2023/06/26 08:10:01;;;;;;;;;;;;;;;24.39;42.15;101199.22;109013;1254;59329;-81
2023/06/26 08:12:28;;;;;;;;;;;;;;;24.32;42.68;101196.35;108007;1254;59546;-81
2023/06/26 08:14:55;;;;;;;;;;;;;;;24.34;42.91;101195.05;107420;1254;124717;-81
2023/06/26 08:17:22;;;;;;;;;;;;;;;24.34;43.29;101193.43;107425;1254;66085;-81
2023/06/26 08:19:49;;;;;;;;;;;;;;;24.35;43.18;101194.66;107735;1255;124394;-82
2023/06/26 08:22:16;;;;;;;;;;;;;;;24.31;43.22;101195.13;107887;1254;61482;-82
2023/06/26 08:24:43;;;;;;;;;;;;;;;24.27;43.82;101191.26;107875;1259;60914;-81
2023/06/26 08:27:10;;;;;;;;;;;;;;;24.26;44.19;101191.83;107349;1254;124723;-81
2023/06/26 08:29:40;;;;;;;;;;;;;;;24.29;44.31;101191.39;107663;1254;66233;-81
2023/06/26 08:32:07;;;;;;;;;;;;;;;24.21;43.91;101194.43;107553;1254;124439;-81
2023/06/26 08:34:34;;;;;;;;;;;;;;;24.15;43.97;101190.30;107599;1254;60197;-80
2023/06/26 08:37:01;;;;;;;;;;;;;;;24.18;44.14;101191.67;107829;1254;60063;-81
2023/06/26 08:39:28;;;;;;;;;;;;;;;24.19;44.18;101192.37;107708;1254;125007;-81
2023/06/26 08:41:55;;;;;;;;;;;;;;;24.15;44.17;101192.45;107615;1254;67165;-81
2023/06/26 08:44:24;;;;;;;;;;;;;;;24.14;44.26;101195.34;107495;1256;124115;-81
2023/06/26 08:46:51;;;;;;;;;;;;;;;24.17;44.51;101192.77;107914;1254;59917;-81
2023/06/26 08:49:24;;;;;;;;;;;;;;;24.27;44.56;101191.98;107928;1259;60071;-82
2023/06/26 08:51:58;;;;;;;;;;;;;;;24.37;44.36;101192.81;107359;1257;123986;-81
2023/06/26 08:54:31;;;;;;;;;;;;;;;24.44;44.25;101191.18;107253;1256;66791;-81
2023/06/26 08:56:58;;;;;;;;;;;;;;;24.50;44.22;101183.33;107311;1260;124064;-80
2023/06/26 08:59:25;;;;;;;;;;;;;;;24.55;44.23;101184.14;107492;1254;60078;-82
2023/06/26 09:01:52;;;;;;;;;;;;;;;24.58;44.22;101184.77;107285;1256;124551;-81
2023/06/26 09:04:19;;;;;;;;;;;;;;;24.61;44.04;101182.88;107191;1256;73074;-80
2023/06/26 09:06:47;;;;;;;;;;;;;;;24.68;44.13;101176.97;107671;1254;67107;-82
2023/06/26 09:09:14;;;;;;;;;;;;;;;24.78;44.17;101175.06;107663;1254;124809;-82
2023/06/26 09:11:41;;;;;;;;;;;;;;;24.90;43.90;101175.47;107575;1254;61685;-82
2023/06/26 09:14:10;;;;;;;;;;;;;;;24.98;43.81;101170.60;107576;1257;124305;-81
2023/06/26 09:16:44;;;;;;;;;;;;;;;25.02;43.47;101169.94;107703;1255;73451;-81
2023/06/26 09:19:11;;;;;;;;;;;;;;;25.03;43.24;101168.64;107961;1254;67576;-81
2023/06/26 09:21:43;;;;;;;;;;;;;;;25.02;42.91;101167.39;107441;1254;124100;-81
2023/06/26 09:24:10;;;;;;;;;;;;;;;25.02;42.89;101166.14;107550;1257;61315;-81
2023/06/26 09:26:38;;;;;;;;;;;;;;;25.04;42.69;101164.84;107759;1257;124561;-81
2023/06/26 09:29:06;;;;;;;;;;;;;;;25.08;42.62;101164.73;107806;1256;74130;-82
2023/06/26 09:31:33;;;;;;;;;;;;;;;25.04;42.29;101166.84;107678;1256;67359;-81
2023/06/26 09:34:01;;;;;;;;;;;;;;;24.97;42.18;101162.34;108984;1255;72376;-81
2023/06/26 09:36:28;;;;;;;;;;;;;;;24.92;42.10;101161.05;109058;1256;59081;-81
2023/06/26 09:39:00;;;;;;;;;;;;;;;24.90;42.05;101161.83;108869;1256;124815;-82
2023/06/26 09:41:28;;;;;;;;;;;;;;;24.89;41.90;101159.17;108920;1256;74923;-82
2023/06/26 09:43:56;;;;;;;;;;;;;;;24.90;41.71;101156.63;108881;1256;124879;-82
2023/06/26 09:46:27;;;;;;;;;;;;;;;24.90;41.55;101151.42;108912;1255;72492;-82
2023/06/26 09:49:04;;;;;;;;;;;;;;;24.95;41.54;101148.95;108996;1256;59434;-82
2023/06/26 09:51:32;;;;;;;;;;;;;;;25.01;41.26;101149.48;108819;1256;124667;-81
2023/06/26 09:54:02;;;;;;;;;;;;;;;25.05;41.05;101147.22;108913;1256;74546;-82
2023/06/26 09:56:29;;;;;;;;;;;;;;;25.04;40.97;101151.17;108775;1256;124519;-82
2023/06/26 09:58:57;;;;;;;;;;;;;;;25.04;40.76;101149.39;109033;1259;72878;-82
2023/06/26 10:01:27;;;;;;;;;;;;;;;25.02;40.58;101147.65;108001;1255;61330;-81
2023/06/26 10:03:56;;;;;;;;;;;;;;;25.05;40.61;101148.84;107666;1256;125637;-81
2023/06/26 10:06:33;;;;;;;;;;;;;;;25.05;40.55;101146.67;107719;1259;73380;-82
2023/06/26 10:09:03;;;;;;;;;;;;;;;25.10;40.37;101140.26;107550;1255;124696;-82
2023/06/26 10:11:51;;;;;;;;;;;;;;;25.15;40.13;101138.66;107341;1256;71459;-81
2023/06/26 10:14:18;;;;;;;;;;;;;;;25.17;40.08;101139.70;107382;1257;124369;-81
2023/06/26 10:16:45;;;;;;;;;;;;;;;25.18;39.97;101136.61;107507;1256;60110;-81
2023/06/26 10:19:12;;;;;;;;;;;;;;;25.22;39.94;101134.17;107772;1256;73691;-82
2023/06/26 10:21:39;;;;;;;;;;;;;;;25.19;39.56;101131.36;107704;1256;124236;-81
2023/06/26 10:24:06;;;;;;;;;;;;;;;25.08;39.39;101131.33;107699;1256;72935;-81
2023/06/26 10:26:35;;;;;;;;;;;;;;;25.03;39.39;101134.73;107788;1256;124163;-81
2023/06/26 10:29:02;;;;;;;;;;;;;;;25.01;39.27;101136.19;107714;1257;60506;-82
2023/06/26 10:31:29;;;;;;;;;;;;;;;25.00;39.16;101131.20;107669;1253;74657;-82
2023/06/26 10:33:56;;;;;;;;;;;;;;;25.01;39.16;101124.52;107361;1261;124353;-81
2023/06/26 10:36:28;;;;;;;;;;;;;;;25.07;39.13;101126.18;107451;1257;71136;-83
2023/06/26 10:38:56;;;;;;;;;;;;;;;25.09;38.93;101121.25;107527;1257;125230;-82
2023/06/26 10:41:23;;;;;;;;;;;;;;;25.10;38.85;101121.06;107514;1260;59681;-82
2023/06/26 10:44:13;;;;;;;;;;;;;;;25.08;38.64;101116.45;107551;1256;124982;-82
2023/06/26 10:46:53;;;;;;;;;;;;;;;25.12;38.73;101115.23;107805;1256;67282;-83
2023/06/26 10:49:24;;;;;;;;;;;;;;;25.16;38.68;101111.34;107648;1254;72365;-82
2023/06/26 10:51:52;;;;;;;;;;;;;;;25.18;38.45;101109.30;107529;1255;124813;-81
2023/06/26 10:54:19;;;;;;;;;;;;;;;25.19;38.67;101103.18;109028;1254;60677;-82
2023/06/26 10:56:47;;;;;;;;;;;;;;;25.26;38.85;101099.05;107500;1256;124368;-81
2023/06/26 10:59:18;;;;;;;;;;;;;;;25.36;38.75;101094.60;107511;1260;66873;-82
2023/06/26 11:01:47;;;;;;;;;;;;;;;25.46;38.49;101093.77;107527;1254;124295;-82
2023/06/26 11:04:16;;;;;;;;;;;;;;;25.55;38.51;101091.13;107436;1254;61379;-82
2023/06/26 11:06:52;;;;;;;;;;;;;;;25.61;38.01;101095.06;107484;1256;59942;-82
2023/06/26 11:09:25;;;;;;;;;;;;;;;25.56;37.68;101091.64;107469;1258;124795;-82
2023/06/26 11:11:57;;;;;;;;;;;;;;;25.51;37.46;101090.54;107631;1258;65714;-82
2023/06/26 11:14:35;;;;;;;;;;;;;;;25.49;37.53;101090.42;107561;1257;124550;-83
2023/06/26 11:17:03;;;;;;;;;;;;;;;25.48;37.34;101090.99;107826;1253;61237;-83
2023/06/26 11:19:32;;;;;;;;;;;;;;;25.51;37.34;101087.11;107691;1256;59870;-83
2023/06/26 11:22:00;;;;;;;;;;;;;;;25.54;37.15;101082.19;107619;1257;124216;-83
2023/06/26 11:24:27;;;;;;;;;;;;;;;25.52;36.86;101080.98;107606;1257;65607;-81
2023/06/26 11:26:54;;;;;;;;;;;;;;;25.52;36.97;101075.77;107318;1257;125263;-84
2023/06/26 11:29:23;;;;;;;;;;;;;;;25.54;36.74;101072.86;108888;1256;58965;-82
2023/06/26 11:31:55;;;;;;;;;;;;;;;25.55;36.59;101070.29;108060;1259;124810;-83
2023/06/26 11:34:22;;;;;;;;;;;;;;;25.59;36.56;101069.63;107442;1256;74910;-83
2023/06/26 11:36:53;;;;;;;;;;;;;;;25.65;36.29;101066.71;107709;1258;67584;-83
2023/06/26 11:39:20;;;;;;;;;;;;;;;25.65;36.05;101064.95;107369;1254;124540;-82
2023/06/26 11:41:47;;;;;;;;;;;;;;;25.63;35.54;101062.84;107479;1257;60845;-82
2023/06/26 11:44:19;;;;;;;;;;;;;;;25.62;35.45;101064.48;107496;1255;124325;-83
2023/06/26 11:46:48;;;;;;;;;;;;;;;25.66;35.30;101060.95;107918;1256;73374;-83
2023/06/26 11:49:16;;;;;;;;;;;;;;;25.66;35.16;101061.84;107679;1257;66775;-82
2023/06/26 11:51:43;;;;;;;;;;;;;;;25.65;35.07;101054.89;107530;1257;124202;-82
2023/06/26 11:54:11;;;;;;;;;;;;;;;25.64;35.01;101054.91;107584;1257;59530;-82
2023/06/26 11:56:40;;;;;;;;;;;;;;;25.65;34.79;101053.98;107262;1256;124391;-82
2023/06/26 11:59:09;;;;;;;;;;;;;;;25.66;34.73;101054.11;107572;1256;73504;-82
2023/06/26 12:01:38;;;;;;;;;;;;;;;25.71;34.80;101051.09;107337;1255;124920;-81
2023/06/26 12:04:06;;;;;;;;;;;;;;;25.78;34.58;101053.52;107546;1256;71486;-82
2023/06/26 12:06:35;;;;;;;;;;;;;;;25.84;34.42;101047.73;107453;1256;61359;-83
2023/06/26 12:09:05;;;;;;;;;;;;;;;25.87;34.29;101044.77;107368;1255;124486;-81
2023/06/26 12:11:32;;;;;;;;;;;;;;;25.86;34.18;101044.80;107586;1256;74314;-82
2023/06/26 12:14:00;;;;;;;;;;;;;;;25.89;34.07;101047.27;107521;1257;124872;-82
2023/06/26 12:16:28;;;;;;;;;;;;;;;25.91;33.94;101048.09;107464;1259;71652;-81
2023/06/26 12:18:59;;;;;;;;;;;;;;;25.92;33.93;101045.00;107460;1256;59529;-84
2023/06/26 12:21:30;;;;;;;;;;;;;;;25.97;34.19;101042.84;107209;1256;124652;-82
2023/06/26 12:23:58;;;;;;;;;;;;;;;26.04;33.98;101039.23;107616;1254;73465;-83
2023/06/26 12:26:25;;;;;;;;;;;;;;;26.04;33.84;101040.27;107511;1254;124780;-83
2023/06/26 12:28:52;;;;;;;;;;;;;;;26.03;33.66;101035.10;107486;1253;71385;-83
2023/06/26 12:31:26;;;;;;;;;;;;;;;26.07;33.72;101032.10;107403;1256;61164;-82
2023/06/26 12:33:53;;;;;;;;;;;;;;;26.11;33.63;101032.67;107266;1256;124410;-82
2023/06/26 12:36:20;;;;;;;;;;;;;;;26.17;33.81;101032.45;107569;1254;73272;-82